createdAt,value
2018-04-25T00:00:44.494Z,984.82
2018-04-25T00:01:44.355Z,984.83
2018-04-25T00:03:37.097Z,984.79
2018-04-25T00:04:37.012Z,984.81
2018-04-25T00:06:29.768Z,984.75
2018-04-25T00:07:29.656Z,984.73
2018-04-25T00:09:22.428Z,984.65
2018-04-25T00:10:22.322Z,984.64
2018-04-25T00:12:15.059Z,984.60
2018-04-25T00:13:14.950Z,984.59
2018-04-25T00:15:07.729Z,984.60
2018-04-25T00:16:07.600Z,984.55
2018-04-25T00:18:00.361Z,984.51
2018-04-25T00:19:00.245Z,984.51
2018-04-25T00:20:56.456Z,984.44
2018-04-25T00:21:56.458Z,984.45
2018-04-25T00:23:49.832Z,984.40
2018-04-25T00:24:49.762Z,984.41
2018-04-25T00:26:42.593Z,984.41
2018-04-25T00:27:42.488Z,984.36
2018-04-25T00:29:35.227Z,984.37
2018-04-25T00:30:35.133Z,984.31
2018-04-25T00:32:28.411Z,984.36
2018-04-25T00:33:28.286Z,984.33
2018-04-25T00:35:21.145Z,984.29
2018-04-25T00:36:21.038Z,984.32
2018-04-25T00:38:13.801Z,984.27
2018-04-25T00:39:13.719Z,984.25
2018-04-25T00:41:06.545Z,984.17
2018-04-25T00:42:06.344Z,984.17
2018-04-25T00:43:59.187Z,984.14
2018-04-25T00:44:59.091Z,984.06
2018-04-25T00:46:51.928Z,984.09
2018-04-25T00:47:51.834Z,984.02
2018-04-25T00:49:44.707Z,984.01
2018-04-25T00:50:44.601Z,983.99
2018-04-25T00:52:37.343Z,984.00
2018-04-25T00:53:37.235Z,983.99
2018-04-25T00:55:29.988Z,983.92
2018-04-25T00:56:29.873Z,983.91
2018-04-25T00:58:22.625Z,983.83
2018-04-25T00:59:22.527Z,983.87
2018-04-25T01:01:15.909Z,983.75
2018-04-25T01:02:15.179Z,983.71
2018-04-25T01:04:07.944Z,983.63
2018-04-25T01:05:07.844Z,983.65
2018-04-25T01:07:00.676Z,983.60
2018-04-25T01:08:00.627Z,983.59
2018-04-25T01:09:53.446Z,983.60
2018-04-25T01:10:53.314Z,983.63
2018-04-25T01:12:46.157Z,983.57
2018-04-25T01:13:46.063Z,983.61
2018-04-25T01:15:38.866Z,983.57
2018-04-25T01:16:38.807Z,983.59
2018-04-25T01:18:31.558Z,983.51
2018-04-25T01:19:31.465Z,983.57
2018-04-25T01:21:24.220Z,983.52
2018-04-25T01:22:24.112Z,983.41
2018-04-25T01:24:16.951Z,983.41
2018-04-25T01:25:16.870Z,983.41
2018-04-25T01:27:09.621Z,983.41
2018-04-25T01:28:09.523Z,983.41
2018-04-25T01:30:02.255Z,983.35
2018-04-25T01:31:02.151Z,983.33
2018-04-25T01:32:54.948Z,983.30
2018-04-25T01:33:54.828Z,983.27
2018-04-25T01:35:47.545Z,983.14
2018-04-25T01:36:47.480Z,983.16
2018-04-25T01:38:40.208Z,983.14
2018-04-25T01:39:40.095Z,983.07
2018-04-25T01:41:32.965Z,983.05
2018-04-25T01:42:32.847Z,983.04
2018-04-25T01:44:25.792Z,983.04
2018-04-25T01:45:25.618Z,982.99
2018-04-25T01:47:18.465Z,983.03
2018-04-25T01:48:18.344Z,982.94
2018-04-25T01:50:11.119Z,982.89
2018-04-25T01:51:10.990Z,982.88
2018-04-25T01:53:04.787Z,982.83
2018-04-25T01:54:04.669Z,982.82
2018-04-25T01:55:57.521Z,982.80
2018-04-25T01:56:57.418Z,982.75
2018-04-25T01:58:50.252Z,982.74
2018-04-25T01:59:50.156Z,982.75
2018-04-25T02:01:43.611Z,982.73
2018-04-25T02:02:43.433Z,982.75
2018-04-25T02:04:36.164Z,982.71
2018-04-25T02:05:36.083Z,982.71
2018-04-25T02:07:28.947Z,982.71
2018-04-25T02:08:28.823Z,982.65
2018-04-25T02:10:21.573Z,982.54
2018-04-25T02:11:21.474Z,982.60
2018-04-25T02:13:14.248Z,982.58
2018-04-25T02:14:14.125Z,982.60
2018-04-25T02:16:06.967Z,982.55
2018-04-25T02:17:06.863Z,982.61
2018-04-25T02:18:59.728Z,982.53
2018-04-25T02:19:59.615Z,982.54
2018-04-25T02:21:52.457Z,982.51
2018-04-25T02:22:52.381Z,982.52
2018-04-25T02:24:45.143Z,982.54
2018-04-25T02:25:45.025Z,982.53
2018-04-25T02:27:37.850Z,982.52
2018-04-25T02:28:37.776Z,982.49
2018-04-25T02:30:30.548Z,982.47
2018-04-25T02:31:30.410Z,982.47
2018-04-25T02:33:23.261Z,982.47
2018-04-25T02:34:23.155Z,982.44
2018-04-25T02:36:16.024Z,982.42
2018-04-25T02:37:15.909Z,982.39
2018-04-25T02:39:09.416Z,982.42
2018-04-25T02:40:09.272Z,982.42
2018-04-25T02:42:02.071Z,982.42
2018-04-25T02:43:01.947Z,982.37
2018-04-25T02:44:54.766Z,982.27
2018-04-25T02:45:54.712Z,982.27
2018-04-25T02:47:47.542Z,982.26
2018-04-25T02:48:47.315Z,982.28
2018-04-25T02:50:40.174Z,982.23
2018-04-25T02:51:40.209Z,982.18
2018-04-25T02:53:33.068Z,982.16
2018-04-25T02:54:32.825Z,982.06
2018-04-25T02:56:26.132Z,982.13
2018-04-25T02:57:25.975Z,982.14
2018-04-25T02:59:19.352Z,982.10
2018-04-25T03:00:18.745Z,982.10
2018-04-25T03:02:11.604Z,982.03
2018-04-25T03:03:11.483Z,982.00
2018-04-25T03:05:04.337Z,982.04
2018-04-25T03:06:04.138Z,982.00
2018-04-25T03:07:56.992Z,981.99
2018-04-25T03:08:56.867Z,982.00
2018-04-25T03:10:49.709Z,981.95
2018-04-25T03:11:49.612Z,981.92
2018-04-25T03:13:42.999Z,981.93
2018-04-25T03:14:42.493Z,981.83
2018-04-25T03:16:35.338Z,981.77
2018-04-25T03:17:35.246Z,981.88
2018-04-25T03:19:28.088Z,981.80
2018-04-25T03:20:27.973Z,981.77
2018-04-25T03:22:20.815Z,981.73
2018-04-25T03:23:20.720Z,981.78
2018-04-25T03:25:13.596Z,981.76
2018-04-25T03:26:13.477Z,981.77
2018-04-25T03:28:06.430Z,981.77
2018-04-25T03:29:06.322Z,981.75
2018-04-25T03:30:59.292Z,981.73
2018-04-25T03:31:59.171Z,981.68
2018-04-25T03:33:52.573Z,981.71
2018-04-25T03:34:52.435Z,981.72
2018-04-25T03:36:45.300Z,981.80
2018-04-25T03:37:45.181Z,981.82
2018-04-25T03:39:38.059Z,981.65
2018-04-25T03:40:37.935Z,981.65
2018-04-25T03:42:30.922Z,981.64
2018-04-25T03:43:30.870Z,981.65
2018-04-25T03:45:23.795Z,981.56
2018-04-25T03:46:23.575Z,981.65
2018-04-25T03:48:16.495Z,981.65
2018-04-25T03:49:16.404Z,981.67
2018-04-25T03:51:09.262Z,981.60
2018-04-25T03:52:09.130Z,981.58
2018-04-25T03:54:02.126Z,981.51
2018-04-25T03:55:01.983Z,981.53
2018-04-25T03:56:54.775Z,981.50
2018-04-25T03:57:54.665Z,981.59
2018-04-25T03:59:47.469Z,981.56
2018-04-25T04:00:47.376Z,981.50
2018-04-25T04:02:40.271Z,981.64
2018-04-25T04:03:40.200Z,981.53
2018-04-25T04:05:32.878Z,981.53
2018-04-25T04:06:32.809Z,981.46
2018-04-25T04:08:25.637Z,981.48
2018-04-25T04:09:25.576Z,981.49
2018-04-25T04:11:18.292Z,981.41
2018-04-25T04:12:18.211Z,981.33
2018-04-25T04:14:11.062Z,981.37
2018-04-25T04:15:10.945Z,981.35
2018-04-25T04:17:03.674Z,981.41
2018-04-25T04:18:03.580Z,981.35
2018-04-25T04:19:56.363Z,981.31
2018-04-25T04:20:56.237Z,981.21
2018-04-25T04:22:48.975Z,981.31
2018-04-25T04:23:48.872Z,981.32
2018-04-25T04:25:41.727Z,981.25
2018-04-25T04:26:41.623Z,981.35
2018-04-25T04:28:34.372Z,981.34
2018-04-25T04:29:34.268Z,981.34
2018-04-25T04:31:27.217Z,981.18
2018-04-25T04:32:27.120Z,981.19
2018-04-25T04:34:19.869Z,981.24
2018-04-25T04:35:19.857Z,981.28
2018-04-25T04:37:12.520Z,981.25
2018-04-25T04:38:12.425Z,981.23
2018-04-25T04:40:05.199Z,981.28
2018-04-25T04:41:05.070Z,981.27
2018-04-25T04:42:57.812Z,981.31
2018-04-25T04:43:57.706Z,981.32
2018-04-25T04:45:50.666Z,981.33
2018-04-25T04:46:50.553Z,981.32
2018-04-25T04:48:43.304Z,981.22
2018-04-25T04:49:43.214Z,981.21
2018-04-25T04:51:35.979Z,981.16
2018-04-25T04:52:35.865Z,981.32
2018-04-25T04:54:28.599Z,981.17
2018-04-25T04:55:28.543Z,981.12
2018-04-25T04:57:21.265Z,981.08
2018-04-25T04:58:21.156Z,981.09
2018-04-25T05:00:13.990Z,981.15
2018-04-25T05:01:13.898Z,981.18
2018-04-25T05:03:07.359Z,981.07
2018-04-25T05:04:07.274Z,980.95
2018-04-25T05:06:00.110Z,981.15
2018-04-25T05:07:00.027Z,981.06
2018-04-25T05:08:52.889Z,981.11
2018-04-25T05:09:52.755Z,981.17
2018-04-25T05:11:46.106Z,981.05
2018-04-25T05:12:45.615Z,981.15
2018-04-25T05:14:38.583Z,981.00
2018-04-25T05:15:38.460Z,981.04
2018-04-25T05:17:31.238Z,980.97
2018-04-25T05:18:31.114Z,981.03
2018-04-25T05:20:23.957Z,981.06
2018-04-25T05:21:23.861Z,981.07
2018-04-25T05:23:16.630Z,981.07
2018-04-25T05:24:16.557Z,981.09
2018-04-25T05:26:09.346Z,981.08
2018-04-25T05:27:09.257Z,981.00
2018-04-25T05:29:02.120Z,981.04
2018-04-25T05:30:02.013Z,981.12
2018-04-25T05:31:54.922Z,980.98
2018-04-25T05:32:54.752Z,981.07
2018-04-25T05:34:47.516Z,981.00
2018-04-25T05:35:47.402Z,981.04
2018-04-25T05:37:40.145Z,981.04
2018-04-25T05:38:40.104Z,981.09
2018-04-25T05:40:32.922Z,981.06
2018-04-25T05:41:32.812Z,981.06
2018-04-25T05:43:25.671Z,981.04
2018-04-25T05:44:25.556Z,981.03
2018-04-25T05:46:18.324Z,981.18
2018-04-25T05:47:18.198Z,981.14
2018-04-25T05:49:11.053Z,981.06
2018-04-25T05:50:10.963Z,981.19
2018-04-25T05:52:03.825Z,981.17
2018-04-25T05:53:03.709Z,981.13
2018-04-25T05:54:56.545Z,981.08
2018-04-25T05:55:56.451Z,981.15
2018-04-25T05:57:49.290Z,981.11
2018-04-25T05:58:49.089Z,981.13
2018-04-25T06:00:41.947Z,981.03
2018-04-25T06:01:41.760Z,981.02
2018-04-25T06:03:34.631Z,980.99
2018-04-25T06:04:34.492Z,981.09
2018-04-25T06:06:27.843Z,981.17
2018-04-25T06:07:27.750Z,981.14
2018-04-25T06:09:20.643Z,981.12
2018-04-25T06:10:20.502Z,981.12
2018-04-25T06:12:13.366Z,981.03
2018-04-25T06:13:13.274Z,981.10
2018-04-25T06:15:06.021Z,980.95
2018-04-25T06:16:05.900Z,981.05
2018-04-25T06:17:58.734Z,981.07
2018-04-25T06:18:58.649Z,981.08
2018-04-25T06:20:51.435Z,981.00
2018-04-25T06:21:51.306Z,981.09
2018-04-25T06:23:44.039Z,981.16
2018-04-25T06:24:43.941Z,981.11
2018-04-25T06:26:37.823Z,981.04
2018-04-25T06:27:37.611Z,981.23
2018-04-25T06:29:30.374Z,981.10
2018-04-25T06:30:30.259Z,981.08
2018-04-25T06:32:23.049Z,981.18
2018-04-25T06:33:22.931Z,981.12
2018-04-25T06:35:15.751Z,980.97
2018-04-25T06:36:15.663Z,981.05
2018-04-25T06:38:09.033Z,981.07
2018-04-25T06:39:08.820Z,981.01
2018-04-25T06:41:01.681Z,980.95
2018-04-25T06:42:01.580Z,980.90
2018-04-25T06:43:54.437Z,981.19
2018-04-25T06:44:54.312Z,981.07
2018-04-25T06:46:47.062Z,980.93
2018-04-25T06:47:46.982Z,980.98
2018-04-25T06:49:39.812Z,981.03
2018-04-25T06:50:39.725Z,981.01
2018-04-25T06:52:32.451Z,980.99
2018-04-25T06:53:32.355Z,980.98
2018-04-25T06:55:25.123Z,981.01
2018-04-25T06:56:26.084Z,980.94
2018-04-25T06:58:17.849Z,981.03
2018-04-25T06:59:17.758Z,981.15
2018-04-25T07:01:10.532Z,980.99
2018-04-25T07:02:10.415Z,980.96
2018-04-25T07:04:03.245Z,981.17
2018-04-25T07:05:03.148Z,980.92
2018-04-25T07:06:56.008Z,980.87
2018-04-25T07:07:55.924Z,981.01
2018-04-25T07:09:48.750Z,980.86
2018-04-25T07:10:48.650Z,980.94
2018-04-25T07:12:41.553Z,980.90
2018-04-25T07:13:41.397Z,980.92
2018-04-25T07:15:34.240Z,980.78
2018-04-25T07:16:34.155Z,980.64
2018-04-25T07:18:27.029Z,980.69
2018-04-25T07:19:26.976Z,980.86
2018-04-25T07:21:19.761Z,980.89
2018-04-25T07:22:19.661Z,980.70
2018-04-25T07:24:12.557Z,980.66
2018-04-25T07:25:12.406Z,980.75
2018-04-25T07:27:05.146Z,980.58
2018-04-25T07:28:05.064Z,980.75
2018-04-25T07:29:57.908Z,980.90
2018-04-25T07:30:57.805Z,980.75
2018-04-25T07:32:50.639Z,980.63
2018-04-25T07:33:50.548Z,980.65
2018-04-25T07:35:43.412Z,980.70
2018-04-25T07:36:43.309Z,980.65
2018-04-25T07:38:36.176Z,980.75
2018-04-25T07:39:36.045Z,981.03
2018-04-25T07:41:28.895Z,980.68
2018-04-25T07:42:28.801Z,980.55
2018-04-25T07:44:21.634Z,980.89
2018-04-25T07:45:21.560Z,980.87
2018-04-25T07:47:14.913Z,980.80
2018-04-25T07:48:14.820Z,980.93
2018-04-25T07:50:08.067Z,980.83
2018-04-25T07:51:07.973Z,980.96
2018-04-25T07:53:00.824Z,980.88
2018-04-25T07:54:00.716Z,980.95
2018-04-25T07:55:53.483Z,980.84
2018-04-25T07:56:53.373Z,980.84
2018-04-25T07:58:46.218Z,980.83
2018-04-25T07:59:46.113Z,980.77
2018-04-25T08:01:38.973Z,980.90
2018-04-25T08:02:38.864Z,980.83
2018-04-25T08:04:31.698Z,980.75
2018-04-25T08:05:31.616Z,981.13
2018-04-25T08:07:24.484Z,980.87
2018-04-25T08:08:24.375Z,980.85
2018-04-25T08:10:17.208Z,980.83
2018-04-25T08:11:17.136Z,980.89
2018-04-25T08:13:09.975Z,980.86
2018-04-25T08:14:09.855Z,980.93
2018-04-25T08:16:02.697Z,981.05
2018-04-25T08:17:02.621Z,981.00
2018-04-25T08:18:55.477Z,980.96
2018-04-25T08:19:55.352Z,980.95
2018-04-25T08:21:48.205Z,980.97
2018-04-25T08:22:48.114Z,980.96
2018-04-25T08:24:40.968Z,980.99
2018-04-25T08:25:40.885Z,981.12
2018-04-25T08:27:33.597Z,980.94
2018-04-25T08:28:33.521Z,981.10
2018-04-25T08:30:26.364Z,980.99
2018-04-25T08:31:26.269Z,980.97
2018-04-25T08:33:19.133Z,981.06
2018-04-25T08:34:19.061Z,981.02
2018-04-25T08:36:11.858Z,981.10
2018-04-25T08:37:11.792Z,981.02
2018-04-25T08:39:04.630Z,981.08
2018-04-25T08:40:04.505Z,981.18
2018-04-25T08:41:57.256Z,981.23
2018-04-25T08:42:57.154Z,981.20
2018-04-25T08:44:50.078Z,981.24
2018-04-25T08:45:49.913Z,981.27
2018-04-25T08:47:42.778Z,981.31
2018-04-25T08:48:42.658Z,981.41
2018-04-25T08:50:35.527Z,981.36
2018-04-25T08:51:35.418Z,981.37
2018-04-25T08:53:28.162Z,981.39
2018-04-25T08:54:28.049Z,981.49
2018-04-25T08:56:20.898Z,981.50
2018-04-25T08:57:20.813Z,981.46
2018-04-25T08:59:14.161Z,981.57
2018-04-25T09:00:13.961Z,981.62
2018-04-25T09:02:07.218Z,981.72
2018-04-25T09:03:07.117Z,981.69
2018-04-25T09:04:59.886Z,981.82
2018-04-25T09:05:59.789Z,981.86
2018-04-25T09:07:52.604Z,981.78
2018-04-25T09:08:52.508Z,981.79
2018-04-25T09:10:45.285Z,981.82
2018-04-25T09:11:45.155Z,981.82
2018-04-25T09:13:37.914Z,981.85
2018-04-25T09:14:37.816Z,981.86
2018-04-25T09:16:30.803Z,982.02
2018-04-25T09:17:30.556Z,981.98
2018-04-25T09:19:23.291Z,982.06
2018-04-25T09:20:23.236Z,982.11
2018-04-25T09:22:16.111Z,982.17
2018-04-25T09:23:15.950Z,982.16
2018-04-25T09:25:08.691Z,982.37
2018-04-25T09:26:08.609Z,982.30
2018-04-25T09:28:01.453Z,982.19
2018-04-25T09:29:01.373Z,982.22
2018-04-25T09:30:54.127Z,982.27
2018-04-25T09:31:53.995Z,982.13
2018-04-25T09:33:46.756Z,982.25
2018-04-25T09:34:46.646Z,982.16
2018-04-25T09:36:39.914Z,982.24
2018-04-25T09:37:39.812Z,982.27
2018-04-25T09:39:32.589Z,982.28
2018-04-25T09:40:32.500Z,982.33
2018-04-25T09:42:25.212Z,982.29
2018-04-25T09:43:25.117Z,982.47
2018-04-25T09:45:17.980Z,982.45
2018-04-25T09:46:17.856Z,982.39
2018-04-25T09:48:10.690Z,982.45
2018-04-25T09:49:10.594Z,982.42
2018-04-25T09:51:03.347Z,982.35
2018-04-25T09:52:03.236Z,982.44
2018-04-25T09:53:56.009Z,982.38
2018-04-25T09:54:55.891Z,982.37
2018-04-25T09:56:48.727Z,982.40
2018-04-25T09:57:48.741Z,982.44
2018-04-25T09:59:41.399Z,982.47
2018-04-25T10:00:41.304Z,982.54
2018-04-25T10:02:34.140Z,982.63
2018-04-25T10:03:34.034Z,982.69
2018-04-25T10:05:27.311Z,982.57
2018-04-25T10:06:27.200Z,982.56
2018-04-25T10:08:20.039Z,982.58
2018-04-25T10:09:19.948Z,982.70
2018-04-25T10:11:12.700Z,982.70
2018-04-25T10:12:12.592Z,982.65
2018-04-25T10:14:05.445Z,982.60
2018-04-25T10:15:05.337Z,982.57
2018-04-25T10:16:58.099Z,982.52
2018-04-25T10:17:58.007Z,982.67
2018-04-25T10:19:50.761Z,982.58
2018-04-25T10:20:50.690Z,982.61
2018-04-25T10:22:43.436Z,982.63
2018-04-25T10:23:43.293Z,982.64
2018-04-25T10:25:36.173Z,982.59
2018-04-25T10:26:36.057Z,982.64
2018-04-25T10:28:28.885Z,982.66
2018-04-25T10:29:28.779Z,982.56
2018-04-25T10:31:21.535Z,982.58
2018-04-25T10:32:21.491Z,982.48
2018-04-25T10:34:14.221Z,982.50
2018-04-25T10:35:14.077Z,982.56
2018-04-25T10:37:06.923Z,982.73
2018-04-25T10:38:06.823Z,982.64
2018-04-25T10:39:59.714Z,982.95
2018-04-25T10:40:59.578Z,982.59
2018-04-25T10:42:52.437Z,982.60
2018-04-25T10:43:52.387Z,982.64
2018-04-25T10:45:45.281Z,982.79
2018-04-25T10:46:45.184Z,982.70
2018-04-25T10:48:38.028Z,982.96
2018-04-25T10:49:37.943Z,982.69
2018-04-25T10:51:30.804Z,982.73
2018-04-25T10:52:30.696Z,982.55
2018-04-25T10:54:23.574Z,982.65
2018-04-25T10:55:23.458Z,982.66
2018-04-25T10:57:16.259Z,982.63
2018-04-25T10:58:16.188Z,982.71
2018-04-25T11:00:08.953Z,982.66
2018-04-25T11:01:08.860Z,982.63
2018-04-25T11:03:01.655Z,982.61
2018-04-25T11:04:01.582Z,982.68
2018-04-25T11:05:54.430Z,982.90
2018-04-25T11:06:54.331Z,982.97
2018-04-25T11:08:47.166Z,983.23
2018-04-25T11:09:47.072Z,983.24
2018-04-25T11:11:39.929Z,983.24
2018-04-25T11:12:39.824Z,983.35
2018-04-25T11:14:32.677Z,983.35
2018-04-25T11:15:32.570Z,983.24
2018-04-25T11:17:25.434Z,983.26
2018-04-25T11:18:25.322Z,983.30
2018-04-25T11:20:18.179Z,983.43
2018-04-25T11:21:18.079Z,983.32
2018-04-25T11:23:10.828Z,983.39
2018-04-25T11:24:10.723Z,983.48
2018-04-25T11:26:03.601Z,983.41
2018-04-25T11:27:03.477Z,983.46
2018-04-25T11:28:56.325Z,983.28
2018-04-25T11:29:56.224Z,983.37
2018-04-25T11:31:49.090Z,983.33
2018-04-25T11:32:48.960Z,983.37
2018-04-25T11:34:41.702Z,983.31
2018-04-25T11:35:41.629Z,983.33
2018-04-25T11:37:34.365Z,983.30
2018-04-25T11:38:34.270Z,983.27
2018-04-25T11:40:27.106Z,983.25
2018-04-25T11:41:27.005Z,983.27
2018-04-25T11:43:19.771Z,983.29
2018-04-25T11:44:19.667Z,983.33
2018-04-25T11:46:12.565Z,983.35
2018-04-25T11:47:12.532Z,983.41
2018-04-25T11:49:05.286Z,983.30
2018-04-25T11:50:05.157Z,983.49
2018-04-25T11:51:58.508Z,983.46
2018-04-25T11:52:58.418Z,983.42
2018-04-25T11:54:51.296Z,983.34
2018-04-25T11:55:51.201Z,983.40
2018-04-25T11:57:44.425Z,983.45
2018-04-25T11:58:44.326Z,983.47
2018-04-25T12:00:37.177Z,983.55
2018-04-25T12:01:37.087Z,983.44
2018-04-25T12:03:30.039Z,983.70
2018-04-25T12:04:29.824Z,983.78
2018-04-25T12:06:22.669Z,983.76
2018-04-25T12:07:22.617Z,983.68
2018-04-25T12:09:15.315Z,983.70
2018-04-25T12:10:15.291Z,983.80
2018-04-25T12:12:08.097Z,983.79
2018-04-25T12:13:07.993Z,983.91
2018-04-25T12:15:00.832Z,983.94
2018-04-25T12:16:00.738Z,984.04
2018-04-25T12:17:53.573Z,984.13
2018-04-25T12:18:53.467Z,984.18
2018-04-25T12:20:46.348Z,984.17
2018-04-25T12:21:46.215Z,984.21
2018-04-25T12:23:39.065Z,984.27
2018-04-25T12:24:38.967Z,984.12
2018-04-25T12:26:31.825Z,984.26
2018-04-25T12:27:31.728Z,984.16
2018-04-25T12:29:24.584Z,984.18
2018-04-25T12:30:24.463Z,984.13
2018-04-25T12:32:17.331Z,984.26
2018-04-25T12:33:17.221Z,984.24
2018-04-25T12:35:09.971Z,984.31
2018-04-25T12:36:09.877Z,984.35
2018-04-25T12:38:02.729Z,984.36
2018-04-25T12:39:02.632Z,984.39
2018-04-25T12:40:55.359Z,984.38
2018-04-25T12:41:55.281Z,984.37
2018-04-25T12:43:48.107Z,984.35
2018-04-25T12:44:48.013Z,984.33
2018-04-25T12:46:40.861Z,984.48
2018-04-25T12:47:40.780Z,984.44
2018-04-25T12:49:33.833Z,984.53
2018-04-25T12:50:33.410Z,984.64
2018-04-25T12:52:26.153Z,984.68
2018-04-25T12:53:26.056Z,984.67
2018-04-25T12:55:18.843Z,984.73
2018-04-25T12:56:18.734Z,984.67
2018-04-25T12:58:11.481Z,984.77
2018-04-25T12:59:11.375Z,984.76
2018-04-25T13:01:04.287Z,984.85
2018-04-25T13:02:04.128Z,984.79
2018-04-25T13:03:56.963Z,984.78
2018-04-25T13:04:56.873Z,984.82
2018-04-25T13:06:49.695Z,984.82
2018-04-25T13:07:49.604Z,984.83
2018-04-25T13:09:42.867Z,984.75
2018-04-25T13:10:42.771Z,984.77
2018-04-25T13:12:35.512Z,984.75
2018-04-25T13:13:35.406Z,984.65
2018-04-25T13:15:28.178Z,984.76
2018-04-25T13:16:28.057Z,984.74
2018-04-25T13:18:20.889Z,984.94
2018-04-25T13:19:20.801Z,984.81
2018-04-25T13:21:13.581Z,984.75
2018-04-25T13:22:13.475Z,984.81
2018-04-25T13:24:06.313Z,984.91
2018-04-25T13:25:06.222Z,984.92
2018-04-25T13:26:59.068Z,984.91
2018-04-25T13:27:58.970Z,984.97
2018-04-25T13:29:51.684Z,984.91
2018-04-25T13:30:51.636Z,984.82
2018-04-25T13:32:44.481Z,984.75
2018-04-25T13:33:44.342Z,984.95
2018-04-25T13:35:37.232Z,984.76
2018-04-25T13:36:37.123Z,984.73
2018-04-25T13:38:29.886Z,984.82
2018-04-25T13:39:29.749Z,984.87
2018-04-25T13:41:22.705Z,984.92
2018-04-25T13:42:22.414Z,984.90
2018-04-25T13:44:15.263Z,984.96
2018-04-25T13:45:15.139Z,984.99
2018-04-25T13:47:07.912Z,984.94
2018-04-25T13:48:07.807Z,984.92
2018-04-25T13:50:00.644Z,985.00
2018-04-25T13:51:00.543Z,984.94
2018-04-25T13:52:53.419Z,984.93
2018-04-25T13:53:53.182Z,984.96
2018-04-25T13:55:46.022Z,985.00
2018-04-25T13:56:45.924Z,984.92
2018-04-25T13:58:38.700Z,985.03
2018-04-25T13:59:38.631Z,984.94
2018-04-25T14:01:31.347Z,985.01
2018-04-25T14:02:31.221Z,984.98
2018-04-25T14:04:23.976Z,985.04
2018-04-25T14:05:23.901Z,984.98
2018-04-25T14:07:16.614Z,985.05
2018-04-25T14:08:16.534Z,984.96
2018-04-25T14:10:09.274Z,985.02
2018-04-25T14:11:09.186Z,985.17
2018-04-25T14:13:02.083Z,985.12
2018-04-25T14:14:01.917Z,985.08
2018-04-25T14:15:54.809Z,985.07
2018-04-25T14:16:54.701Z,985.07
2018-04-25T14:18:47.543Z,985.12
2018-04-25T14:19:47.415Z,985.18
2018-04-25T14:21:40.277Z,985.23
2018-04-25T14:22:40.175Z,985.24
2018-04-25T14:24:33.075Z,985.23
2018-04-25T14:25:32.932Z,985.21
2018-04-25T14:27:25.749Z,985.21
2018-04-25T14:28:25.680Z,985.20
2018-04-25T14:30:18.562Z,985.21
2018-04-25T14:31:18.425Z,985.43
2018-04-25T14:33:11.296Z,985.34
2018-04-25T14:34:11.165Z,985.41
2018-04-25T14:36:04.034Z,985.43
2018-04-25T14:37:03.910Z,985.43
2018-04-25T14:38:57.768Z,985.46
2018-04-25T14:39:56.673Z,985.44
2018-04-25T14:41:49.623Z,985.49
2018-04-25T14:42:49.507Z,985.56
2018-04-25T14:44:42.355Z,985.41
2018-04-25T14:45:42.264Z,985.40
2018-04-25T14:47:35.131Z,985.44
2018-04-25T14:48:35.010Z,985.48
2018-04-25T14:50:27.850Z,985.49
2018-04-25T14:51:27.769Z,985.46
2018-04-25T14:53:20.620Z,985.46
2018-04-25T14:54:20.510Z,985.37
2018-04-25T14:56:13.379Z,985.31
2018-04-25T14:57:13.326Z,985.28
2018-04-25T14:59:06.165Z,985.32
2018-04-25T15:00:06.023Z,985.23
2018-04-25T15:01:58.876Z,985.29
2018-04-25T15:02:58.757Z,985.23
2018-04-25T15:04:51.603Z,985.30
2018-04-25T15:05:51.504Z,985.30
2018-04-25T15:07:44.375Z,985.29
2018-04-25T15:08:44.268Z,985.31
2018-04-25T15:10:37.014Z,985.30
2018-04-25T15:11:36.908Z,985.21
2018-04-25T15:13:29.758Z,985.21
2018-04-25T15:14:29.658Z,985.19
2018-04-25T15:16:22.494Z,985.18
2018-04-25T15:17:22.416Z,985.24
2018-04-25T15:19:15.311Z,985.27
2018-04-25T15:20:15.238Z,985.26
2018-04-25T15:22:08.031Z,985.30
2018-04-25T15:23:07.953Z,985.30
2018-04-25T15:25:00.989Z,985.35
2018-04-25T15:26:00.925Z,985.34
2018-04-25T15:27:53.715Z,985.52
2018-04-25T15:28:53.610Z,985.38
2018-04-25T15:30:48.027Z,985.33
2018-04-25T15:31:47.903Z,985.38
2018-04-25T15:33:40.772Z,985.38
2018-04-25T15:34:40.654Z,985.45
2018-04-25T15:36:34.037Z,985.45
2018-04-25T15:37:33.923Z,985.50
2018-04-25T15:39:26.856Z,985.43
2018-04-25T15:40:26.658Z,985.41
2018-04-25T15:42:19.523Z,985.66
2018-04-25T15:43:19.403Z,985.71
2018-04-25T15:45:12.272Z,985.74
2018-04-25T15:46:12.165Z,985.54
2018-04-25T15:48:05.524Z,985.55
2018-04-25T15:49:05.446Z,985.57
2018-04-25T15:50:58.286Z,985.55
2018-04-25T15:51:58.229Z,985.48
2018-04-25T15:53:51.120Z,985.63
2018-04-25T15:54:51.023Z,985.56
2018-04-25T15:56:44.902Z,985.58
2018-04-25T15:57:43.888Z,985.66
2018-04-25T15:59:36.812Z,985.31
2018-04-25T16:00:36.772Z,985.35
2018-04-25T16:02:29.582Z,985.54
2018-04-25T16:03:29.523Z,985.56
2018-04-25T16:05:22.315Z,985.45
2018-04-25T16:06:22.219Z,985.43
2018-04-25T16:08:15.086Z,985.55
2018-04-25T16:09:14.968Z,985.54
2018-04-25T16:11:08.157Z,985.71
2018-04-25T16:12:07.914Z,985.62
2018-04-25T16:14:00.703Z,985.67
2018-04-25T16:15:00.706Z,985.53
2018-04-25T16:16:54.000Z,985.75
2018-04-25T16:17:53.884Z,985.68
2018-04-25T16:19:46.735Z,985.61
2018-04-25T16:20:46.776Z,985.46
2018-04-25T16:22:39.571Z,985.59
2018-04-25T16:23:39.360Z,985.55
2018-04-25T16:25:32.411Z,985.53
2018-04-25T16:26:32.103Z,985.61
2018-04-25T16:28:25.022Z,985.52
2018-04-25T16:29:24.864Z,985.57
2018-04-25T16:31:17.724Z,985.51
2018-04-25T16:32:17.578Z,985.42
2018-04-25T16:34:10.954Z,985.44
2018-04-25T16:35:10.865Z,985.39
2018-04-25T16:37:04.734Z,985.37
2018-04-25T16:38:04.655Z,985.44
2018-04-25T16:39:57.855Z,985.38
2018-04-25T16:40:57.701Z,985.41
2018-04-25T16:42:50.547Z,985.41
2018-04-25T16:43:50.681Z,985.38
2018-04-25T16:45:44.317Z,985.41
2018-04-25T16:46:43.275Z,985.54
2018-04-25T16:48:36.119Z,985.62
2018-04-25T16:49:36.030Z,985.65
2018-04-25T16:51:28.904Z,985.47
2018-04-25T16:52:28.812Z,985.47
2018-04-25T16:54:21.970Z,985.45
2018-04-25T16:55:21.563Z,985.52
2018-04-25T16:57:15.905Z,985.50
2018-04-25T16:58:15.325Z,985.52
2018-04-25T17:00:08.781Z,985.72
2018-04-25T17:01:08.560Z,985.76
2018-04-25T17:03:01.619Z,985.81
2018-04-25T17:04:01.526Z,985.72
2018-04-25T17:05:54.877Z,985.76
2018-04-25T17:06:54.791Z,985.61
2018-04-25T17:08:47.832Z,985.53
2018-04-25T17:09:47.632Z,985.51
2018-04-25T17:11:42.014Z,985.44
2018-04-25T17:12:41.914Z,985.43
2018-04-25T17:14:34.896Z,985.46
2018-04-25T17:15:34.773Z,985.49
2018-04-25T17:17:28.140Z,985.45
2018-04-25T17:18:27.655Z,985.47
2018-04-25T17:20:21.910Z,985.41
2018-04-25T17:21:21.804Z,985.36
2018-04-25T17:23:14.663Z,985.37
2018-04-25T17:24:14.558Z,985.33
2018-04-25T17:26:07.405Z,985.57
2018-04-25T17:27:07.331Z,985.33
2018-04-25T17:29:00.153Z,985.54
2018-04-25T17:30:00.066Z,985.35
2018-04-25T17:31:52.943Z,985.40
2018-04-25T17:32:52.817Z,985.55
2018-04-25T17:34:46.185Z,985.70
2018-04-25T17:35:45.558Z,985.64
2018-04-25T17:37:38.419Z,985.61
2018-04-25T17:38:38.344Z,985.64
2018-04-25T17:40:31.179Z,985.60
2018-04-25T17:41:31.048Z,985.57
2018-04-25T17:43:23.893Z,985.50
2018-04-25T17:44:23.795Z,985.48
2018-04-25T17:46:16.664Z,985.51
2018-04-25T17:47:16.567Z,985.48
2018-04-25T17:49:09.412Z,985.50
2018-04-25T17:50:09.296Z,985.48
2018-04-25T17:52:02.157Z,985.41
2018-04-25T17:53:02.092Z,985.44
2018-04-25T17:54:54.806Z,985.46
2018-04-25T17:55:54.721Z,985.49
2018-04-25T17:57:47.456Z,985.47